createdAt,value
2023-03-29T00:00:23.023Z,102259.44
2023-03-29T00:02:50.254Z,102240.19
2023-03-29T00:05:23.099Z,102236.53
2023-03-29T00:07:54.088Z,102247.06
2023-03-29T00:10:24.099Z,102253.06
2023-03-29T00:12:52.609Z,102241.69
2023-03-29T00:15:20.199Z,102224.47
2023-03-29T00:17:47.029Z,102241.84
2023-03-29T00:20:13.945Z,102241.69
2023-03-29T00:22:42.264Z,102234.16
2023-03-29T00:25:11.384Z,102224.78
2023-03-29T00:27:38.464Z,102227.31
2023-03-29T00:30:07.211Z,102226.94
2023-03-29T00:32:34.896Z,102230.13
2023-03-29T00:35:01.876Z,102223.25
2023-03-29T00:37:30.039Z,102218.22
2023-03-29T00:39:57.913Z,102224.41
2023-03-29T00:42:25.774Z,102225.25
2023-03-29T00:45:04.353Z,102225.75
2023-03-29T00:47:39.997Z,102220.06
2023-03-29T00:50:12.635Z,102226.94
2023-03-29T00:52:41.268Z,102232.59
2023-03-29T00:55:13.290Z,102221.53
2023-03-29T00:57:41.106Z,102211.69
2023-03-29T01:00:10.204Z,102217.19
2023-03-29T01:02:40.055Z,102221.69
2023-03-29T01:05:15.562Z,102218.66
2023-03-29T01:08:06.781Z,102211.13
2023-03-29T01:10:42.133Z,102215.97
2023-03-29T01:13:18.269Z,102216.66
2023-03-29T01:15:46.982Z,102224.50
2023-03-29T01:18:16.006Z,102211.13
2023-03-29T01:21:03.169Z,102211.66
2023-03-29T01:23:40.310Z,102198.78
2023-03-29T01:26:19.685Z,102204.81
2023-03-29T01:29:11.422Z,102202.63
2023-03-29T01:31:44.738Z,102204.31
2023-03-29T01:34:28.055Z,102215.69
2023-03-29T01:37:04.477Z,102215.78
2023-03-29T01:39:34.240Z,102215.34
2023-03-29T01:42:14.197Z,102203.63
2023-03-29T01:44:46.972Z,102209.78
2023-03-29T01:47:23.780Z,102205.78
2023-03-29T01:50:10.165Z,102200.44
2023-03-29T01:52:45.511Z,102196.63
2023-03-29T01:55:26.439Z,102192.25
2023-03-29T01:57:56.368Z,102197.41
2023-03-29T02:00:27.675Z,102190.72
2023-03-29T02:03:00.483Z,102187.22
2023-03-29T02:05:30.683Z,102186.06
2023-03-29T02:08:00.422Z,102188.75
2023-03-29T02:10:27.483Z,102183.56
2023-03-29T02:12:54.328Z,102178.69
2023-03-29T02:15:21.774Z,102180.19
2023-03-29T02:17:49.506Z,102183.56
2023-03-29T02:20:24.183Z,102179.03
2023-03-29T02:23:13.751Z,102171.69
2023-03-29T02:25:42.293Z,102178.03
2023-03-29T02:28:09.559Z,102171.16
2023-03-29T02:31:05.593Z,102163.16
2023-03-29T02:33:45.792Z,102159.91
2023-03-29T02:36:28.212Z,102163.06
2023-03-29T02:38:56.522Z,102161.94
2023-03-29T02:41:25.776Z,102165.09
2023-03-29T02:43:54.092Z,102152.81
2023-03-29T02:46:21.487Z,102161.84
2023-03-29T02:48:51.991Z,102154.66
2023-03-29T02:51:22.695Z,102149.88
2023-03-29T02:53:57.192Z,102144.72
2023-03-29T02:56:24.030Z,102157.19
2023-03-29T02:58:50.819Z,102146.50
2023-03-29T03:01:20.446Z,102150.66
2023-03-29T03:03:50.842Z,102157.19
2023-03-29T03:06:18.629Z,102155.06
2023-03-29T03:08:45.710Z,102139.84
2023-03-29T03:11:12.485Z,102142.22
2023-03-29T03:13:39.557Z,102141.88
2023-03-29T03:16:07.978Z,102150.25
2023-03-29T03:18:37.369Z,102133.44
2023-03-29T03:21:04.654Z,102133.97
2023-03-29T03:23:32.062Z,102138.97
2023-03-29T03:25:59.227Z,102139.66
2023-03-29T03:28:27.436Z,102143.97
2023-03-29T03:30:55.142Z,102129.09
2023-03-29T03:33:26.918Z,102125.63
2023-03-29T03:36:12.295Z,102134.63
2023-03-29T03:38:44.261Z,102129.44
2023-03-29T03:41:11.735Z,102131.44
2023-03-29T03:43:41.522Z,102128.78
2023-03-29T03:46:08.743Z,102134.28
2023-03-29T03:48:37.187Z,102133.19
2023-03-29T03:51:28.576Z,102130.22
2023-03-29T03:53:55.439Z,102123.50
2023-03-29T03:56:34.461Z,102122.19
2023-03-29T03:59:04.045Z,102123.81
2023-03-29T04:01:37.834Z,102125.84
2023-03-29T04:04:14.541Z,102138.84
2023-03-29T04:06:51.762Z,102140.00
2023-03-29T04:09:34.854Z,102135.53
2023-03-29T04:12:24.402Z,102137.50
2023-03-29T04:14:51.405Z,102150.69
2023-03-29T04:17:22.219Z,102156.03
2023-03-29T04:20:02.241Z,102147.09
2023-03-29T04:22:33.287Z,102138.66
2023-03-29T04:25:00.290Z,102147.97
2023-03-29T04:27:39.429Z,102160.91
2023-03-29T04:30:14.349Z,102166.75
2023-03-29T04:33:16.304Z,102158.66
2023-03-29T04:35:48.225Z,102156.69
2023-03-29T04:38:17.524Z,102158.53
2023-03-29T04:40:46.576Z,102157.16
2023-03-29T04:43:23.762Z,102175.53
2023-03-29T04:46:00.195Z,102168.44
2023-03-29T04:48:53.084Z,102161.22
2023-03-29T04:51:29.103Z,102171.13
2023-03-29T04:53:57.548Z,102173.88
2023-03-29T04:56:24.377Z,102176.94
2023-03-29T04:59:09.782Z,102176.69
2023-03-29T05:01:37.222Z,102185.31
2023-03-29T05:04:05.051Z,102186.31
2023-03-29T05:06:38.610Z,102197.50
2023-03-29T05:09:08.990Z,102186.16
2023-03-29T05:12:05.426Z,102177.63
2023-03-29T05:14:45.810Z,102190.94
2023-03-29T05:17:12.879Z,102195.53
2023-03-29T05:19:40.407Z,102187.22
2023-03-29T05:22:09.027Z,102184.72
2023-03-29T05:24:37.567Z,102190.78
2023-03-29T05:27:11.781Z,102190.19
2023-03-29T05:29:39.219Z,102185.91
2023-03-29T05:32:23.999Z,102185.59
2023-03-29T05:34:51.562Z,102193.28
2023-03-29T05:37:19.116Z,102192.28
2023-03-29T05:39:55.018Z,102195.34
2023-03-29T05:42:37.817Z,102191.53
2023-03-29T05:45:08.666Z,102195.56
2023-03-29T05:47:36.115Z,102194.66
2023-03-29T05:50:03.372Z,102189.19
2023-03-29T05:52:30.910Z,102194.91
2023-03-29T05:54:57.663Z,102203.28
2023-03-29T05:57:24.458Z,102191.41
2023-03-29T05:59:51.471Z,102196.91
2023-03-29T06:02:18.880Z,102194.75
2023-03-29T06:04:51.597Z,102199.94
2023-03-29T06:07:24.716Z,102203.34
2023-03-29T06:10:24.743Z,102204.50
2023-03-29T06:12:58.172Z,102198.63
2023-03-29T06:15:25.896Z,102202.94
2023-03-29T06:17:59.992Z,102201.72
2023-03-29T06:20:27.387Z,102194.94
2023-03-29T06:23:00.449Z,102198.03
2023-03-29T06:25:27.270Z,102198.59
2023-03-29T06:27:54.269Z,102205.09
2023-03-29T06:30:21.212Z,102202.38
2023-03-29T06:32:51.878Z,102200.00
2023-03-29T06:35:48.530Z,102195.69
2023-03-29T06:38:21.127Z,102201.13
2023-03-29T06:41:07.010Z,102197.69
2023-03-29T06:44:06.098Z,102193.28
2023-03-29T06:46:37.734Z,102188.19
2023-03-29T06:49:08.175Z,102187.88
2023-03-29T06:51:48.738Z,102191.63
2023-03-29T06:54:15.741Z,102184.81
2023-03-29T06:56:52.386Z,102185.31
2023-03-29T06:59:21.613Z,102180.81
2023-03-29T07:01:59.051Z,102187.66
2023-03-29T07:04:41.852Z,102181.50
2023-03-29T07:07:22.280Z,102188.84
2023-03-29T07:10:01.840Z,102186.88
2023-03-29T07:12:31.502Z,102178.16
2023-03-29T07:15:00.791Z,102179.16
2023-03-29T07:17:50.578Z,102186.00
2023-03-29T07:20:17.741Z,102181.31
2023-03-29T07:22:48.211Z,102178.09
2023-03-29T07:25:16.480Z,102182.91
2023-03-29T07:27:43.845Z,102185.09
2023-03-29T07:30:14.013Z,102180.53
2023-03-29T07:32:42.615Z,102181.16
2023-03-29T07:35:32.851Z,102178.34
2023-03-29T07:38:00.878Z,102184.44
2023-03-29T07:40:28.137Z,102179.91
2023-03-29T07:42:58.846Z,102191.44
2023-03-29T07:45:29.073Z,102181.38
2023-03-29T07:48:02.192Z,102174.00
2023-03-29T07:50:46.112Z,102189.31
2023-03-29T07:53:13.657Z,102180.41
2023-03-29T07:55:47.654Z,102189.44
2023-03-29T07:58:35.966Z,102188.09
2023-03-29T08:01:03.723Z,102195.88
2023-03-29T08:03:49.556Z,102190.94
2023-03-29T08:06:17.744Z,102186.53
2023-03-29T08:08:44.667Z,102193.97
2023-03-29T08:11:15.390Z,102195.72
2023-03-29T08:13:59.645Z,102197.50
2023-03-29T08:16:26.971Z,102193.84
2023-03-29T08:19:08.100Z,102201.72
2023-03-29T08:21:53.996Z,102193.72
2023-03-29T08:24:23.834Z,102196.66
2023-03-29T08:26:55.926Z,102198.50
2023-03-29T08:29:24.703Z,102195.84
2023-03-29T08:31:51.545Z,102195.13
2023-03-29T08:34:18.849Z,102198.16
2023-03-29T08:36:59.168Z,102199.09
2023-03-29T08:39:46.221Z,102184.19
2023-03-29T08:42:47.319Z,102186.69
2023-03-29T08:45:17.930Z,102188.44
2023-03-29T08:47:58.933Z,102180.66
2023-03-29T08:50:36.737Z,102175.00
2023-03-29T08:53:16.296Z,102172.94
2023-03-29T08:56:13.313Z,102181.81
2023-03-29T08:59:01.176Z,102188.97
2023-03-29T09:01:36.402Z,102174.50
2023-03-29T09:04:11.704Z,102182.28
2023-03-29T09:06:57.942Z,102179.34
2023-03-29T09:09:33.769Z,102173.47
2023-03-29T09:12:16.652Z,102174.81
2023-03-29T09:14:58.912Z,102171.59
2023-03-29T09:17:44.659Z,102165.66
2023-03-29T09:20:21.845Z,102163.47
2023-03-29T09:22:54.115Z,102165.84
2023-03-29T09:25:54.178Z,102166.50
2023-03-29T09:28:29.560Z,102164.06
2023-03-29T09:31:04.024Z,102153.94
2023-03-29T09:33:42.854Z,102151.25
2023-03-29T09:36:24.880Z,102167.22
2023-03-29T09:38:55.670Z,102169.91
2023-03-29T09:41:35.872Z,102169.50
2023-03-29T09:44:12.723Z,102158.56
2023-03-29T09:46:58.611Z,102151.56
2023-03-29T09:49:38.173Z,102148.13
2023-03-29T09:52:11.531Z,102145.63
2023-03-29T09:54:39.469Z,102147.97
2023-03-29T09:57:27.483Z,102142.56
2023-03-29T09:59:54.777Z,102133.47
2023-03-29T10:02:22.126Z,102134.47
2023-03-29T10:05:01.046Z,102131.19
2023-03-29T10:07:54.707Z,102130.81
2023-03-29T10:10:30.778Z,102132.28
2023-03-29T10:13:03.334Z,102135.41
2023-03-29T10:15:30.908Z,102129.59
2023-03-29T10:18:03.915Z,102126.53
2023-03-29T10:20:31.040Z,102126.31
2023-03-29T10:22:59.405Z,102109.13
2023-03-29T10:25:30.144Z,102120.34
2023-03-29T10:28:06.114Z,102109.34
2023-03-29T10:30:37.332Z,102114.31
2023-03-29T10:33:05.175Z,102106.91
2023-03-29T10:35:41.686Z,102103.38
2023-03-29T10:38:15.000Z,102090.09
2023-03-29T10:40:48.118Z,102094.25
2023-03-29T10:43:17.815Z,102102.34
2023-03-29T10:45:47.932Z,102098.78
2023-03-29T10:48:17.534Z,102102.75
2023-03-29T10:50:50.847Z,102095.88
2023-03-29T10:53:26.315Z,102084.66
2023-03-29T10:56:18.588Z,102087.78
2023-03-29T10:59:03.713Z,102085.31
2023-03-29T11:01:40.857Z,102089.03
2023-03-29T11:04:19.471Z,102079.09
2023-03-29T11:07:13.175Z,102084.47
2023-03-29T11:10:04.015Z,102085.31
2023-03-29T11:12:49.558Z,102081.78
2023-03-29T11:15:44.105Z,102080.31
2023-03-29T11:18:25.807Z,102080.09
2023-03-29T11:21:00.665Z,102071.59
2023-03-29T11:24:14.002Z,102071.81
2023-03-29T11:27:18.011Z,102066.78
2023-03-29T11:30:01.206Z,102062.03
2023-03-29T11:32:37.400Z,102073.66
2023-03-29T11:35:19.281Z,102064.94
2023-03-29T11:38:22.933Z,102061.41
2023-03-29T11:40:55.717Z,102054.34
2023-03-29T11:43:35.071Z,102059.53
2023-03-29T11:46:18.059Z,102054.34
2023-03-29T11:48:56.995Z,102052.72
2023-03-29T11:51:28.510Z,102058.50
2023-03-29T11:54:04.195Z,102057.88
2023-03-29T11:56:43.771Z,102065.78
2023-03-29T11:59:36.176Z,102055.38
2023-03-29T12:02:25.812Z,102049.97
2023-03-29T12:04:55.419Z,102043.34
2023-03-29T12:07:37.117Z,102039.59
2023-03-29T12:10:14.843Z,102035.00
2023-03-29T12:13:03.410Z,102037.09
2023-03-29T12:15:54.117Z,102023.00
2023-03-29T12:18:39.825Z,102031.69
2023-03-29T12:21:14.427Z,102034.38
2023-03-29T12:23:43.441Z,102028.38
2023-03-29T12:26:43.729Z,102022.13
2023-03-29T12:29:36.530Z,102023.59
2023-03-29T12:32:32.030Z,102017.94
2023-03-29T12:35:38.515Z,102003.59
2023-03-29T12:38:30.980Z,102012.13
2023-03-29T12:41:21.711Z,102004.66
2023-03-29T12:44:23.651Z,102003.00
2023-03-29T12:47:02.153Z,101998.03
2023-03-29T12:49:35.995Z,101985.75
2023-03-29T12:52:08.529Z,101982.81
2023-03-29T12:54:35.425Z,101984.28
2023-03-29T12:57:20.882Z,101985.75
2023-03-29T12:59:49.684Z,101971.38
2023-03-29T13:02:17.833Z,101971.38
2023-03-29T13:04:52.464Z,101966.34
2023-03-29T13:07:22.296Z,101972.34
2023-03-29T13:09:59.407Z,101967.19
2023-03-29T13:12:33.486Z,101965.50
2023-03-29T13:15:22.101Z,101955.56
2023-03-29T13:18:08.599Z,101946.81
2023-03-29T13:21:20.971Z,101946.03
2023-03-29T13:24:05.811Z,101947.94
2023-03-29T13:26:46.105Z,101945.47
2023-03-29T13:29:33.702Z,101942.78
2023-03-29T13:32:27.144Z,101936.28
2023-03-29T13:35:06.326Z,101941.53
2023-03-29T13:37:36.708Z,101945.47
2023-03-29T13:40:25.019Z,101929.88
2023-03-29T13:43:04.535Z,101934.03
2023-03-29T13:45:32.555Z,101933.22
2023-03-29T13:48:25.090Z,101939.44
2023-03-29T13:51:20.079Z,101929.47
2023-03-29T13:53:55.110Z,101918.66
2023-03-29T13:56:27.099Z,101923.63
2023-03-29T13:58:55.922Z,101924.06
2023-03-29T14:01:32.045Z,101917.44
2023-03-29T14:03:59.455Z,101930.50
2023-03-29T14:06:36.641Z,101917.44
2023-03-29T14:09:09.014Z,101919.94
2023-03-29T14:11:36.632Z,101928.06
2023-03-29T14:14:07.388Z,101914.53
2023-03-29T14:16:40.247Z,101918.72
2023-03-29T14:19:24.807Z,101910.59
2023-03-29T14:21:53.260Z,101905.41
2023-03-29T14:24:27.269Z,101897.69
2023-03-29T14:26:54.759Z,101895.66
2023-03-29T14:29:22.951Z,101895.84
2023-03-29T14:31:52.049Z,101891.47
2023-03-29T14:34:19.254Z,101891.72
2023-03-29T14:36:55.151Z,101894.03
2023-03-29T14:39:23.442Z,101882.38
2023-03-29T14:41:53.858Z,101883.59
2023-03-29T14:44:26.089Z,101884.25
2023-03-29T14:46:56.960Z,101872.81
2023-03-29T14:49:24.736Z,101873.22
2023-03-29T14:51:53.103Z,101877.16
2023-03-29T14:54:29.632Z,101881.91
2023-03-29T14:57:00.022Z,101874.84
2023-03-29T14:59:29.655Z,101877.56
2023-03-29T15:01:56.759Z,101870.31
2023-03-29T15:04:23.891Z,101863.00
2023-03-29T15:06:58.497Z,101868.81
2023-03-29T15:09:32.605Z,101863.66
2023-03-29T15:12:01.313Z,101859.28
2023-03-29T15:14:33.885Z,101857.75
2023-03-29T15:17:04.767Z,101843.81
2023-03-29T15:19:32.250Z,101848.84
2023-03-29T15:22:06.031Z,101848.63
2023-03-29T15:24:33.881Z,101854.88
2023-03-29T15:27:03.657Z,101861.13
2023-03-29T15:29:41.773Z,101852.16
2023-03-29T15:32:11.652Z,101847.56
2023-03-29T15:34:38.549Z,101848.13
2023-03-29T15:37:05.424Z,101841.31
2023-03-29T15:39:32.398Z,101843.78
2023-03-29T15:42:03.673Z,101844.63
2023-03-29T15:44:33.385Z,101843.56
2023-03-29T15:47:00.557Z,101837.53
2023-03-29T15:49:27.584Z,101834.56
2023-03-29T15:51:57.078Z,101837.09
2023-03-29T15:54:24.841Z,101840.03
2023-03-29T15:57:01.483Z,101841.06
2023-03-29T15:59:28.392Z,101843.84
2023-03-29T16:01:55.316Z,101838.22
2023-03-29T16:04:22.446Z,101846.34
2023-03-29T16:06:52.808Z,101830.78
2023-03-29T16:09:20.853Z,101833.47
2023-03-29T16:11:48.922Z,101840.31
2023-03-29T16:14:31.496Z,101844.09
2023-03-29T16:17:00.263Z,101844.88
2023-03-29T16:19:28.752Z,101842.22
2023-03-29T16:21:55.733Z,101843.91
2023-03-29T16:24:25.917Z,101837.91
2023-03-29T16:26:55.666Z,101839.28
2023-03-29T16:29:23.533Z,101839.13
2023-03-29T16:31:51.150Z,101840.56
2023-03-29T16:34:19.169Z,101828.13
2023-03-29T16:36:47.600Z,101831.88
2023-03-29T16:39:14.656Z,101829.34
2023-03-29T16:41:42.512Z,101824.19
2023-03-29T16:44:16.183Z,101834.16
2023-03-29T16:46:43.023Z,101819.38
2023-03-29T16:49:14.027Z,101827.91
2023-03-29T16:51:40.858Z,101822.06
2023-03-29T16:54:07.621Z,101816.03
2023-03-29T16:56:36.811Z,101821.81
2023-03-29T16:59:03.776Z,101820.56
2023-03-29T17:01:31.428Z,101826.19
2023-03-29T17:03:58.410Z,101823.94
2023-03-29T17:06:26.483Z,101817.28
2023-03-29T17:08:53.796Z,101821.69
2023-03-29T17:11:23.648Z,101816.06
2023-03-29T17:13:50.507Z,101824.41
2023-03-29T17:16:17.732Z,101827.38
2023-03-29T17:18:44.570Z,101818.50
2023-03-29T17:21:11.540Z,101820.19
2023-03-29T17:23:41.440Z,101817.13
2023-03-29T17:26:08.513Z,101821.94
2023-03-29T17:28:35.952Z,101823.19
2023-03-29T17:31:09.672Z,101826.28
2023-03-29T17:33:37.071Z,101831.25
2023-03-29T17:36:05.762Z,101841.22
2023-03-29T17:38:34.254Z,101837.06
2023-03-29T17:41:01.796Z,101835.81
2023-03-29T17:43:28.620Z,101834.78
2023-03-29T17:45:55.613Z,101823.38
2023-03-29T17:48:24.002Z,101821.72
2023-03-29T17:50:51.071Z,101825.84
2023-03-29T17:53:18.038Z,101828.09
2023-03-29T17:55:44.839Z,101825.78
2023-03-29T17:58:11.812Z,101829.09
2023-03-29T18:00:38.720Z,101826.59
2023-03-29T18:03:05.904Z,101835.06
2023-03-29T18:05:34.306Z,101839.19
2023-03-29T18:08:01.487Z,101832.75
2023-03-29T18:10:28.368Z,101829.19
2023-03-29T18:12:55.128Z,101828.78
2023-03-29T18:15:22.330Z,101841.56
2023-03-29T18:17:49.228Z,101846.13
2023-03-29T18:20:17.218Z,101845.88
2023-03-29T18:22:44.435Z,101846.28
2023-03-29T18:25:14.784Z,101856.44
2023-03-29T18:27:44.150Z,101842.53
2023-03-29T18:30:13.969Z,101843.94
2023-03-29T18:32:41.057Z,101849.47
2023-03-29T18:35:08.330Z,101848.66
2023-03-29T18:37:37.385Z,101850.06
2023-03-29T18:40:08.074Z,101857.13
2023-03-29T18:42:34.935Z,101864.53
2023-03-29T18:45:03.600Z,101862.88
2023-03-29T18:47:30.575Z,101860.19
2023-03-29T18:49:57.775Z,101864.75
2023-03-29T18:52:24.488Z,101868.25
2023-03-29T18:54:51.472Z,101874.88
2023-03-29T18:57:18.485Z,101886.16
2023-03-29T18:59:51.268Z,101877.84
2023-03-29T19:02:18.012Z,101878.44
2023-03-29T19:04:44.841Z,101872.44
2023-03-29T19:07:11.806Z,101884.03
2023-03-29T19:09:38.591Z,101888.13
2023-03-29T19:12:05.779Z,101888.53
2023-03-29T19:14:32.536Z,101894.47
2023-03-29T19:17:02.096Z,101890.75
2023-03-29T19:19:28.930Z,101892.19
2023-03-29T19:21:58.336Z,101903.78
2023-03-29T19:24:27.161Z,101899.81
2023-03-29T19:26:54.009Z,101900.38
2023-03-29T19:29:20.877Z,101904.28
2023-03-29T19:31:47.755Z,101902.25
2023-03-29T19:34:15.669Z,101904.28
2023-03-29T19:36:42.442Z,101911.25
2023-03-29T19:39:10.644Z,101916.81
2023-03-29T19:41:38.210Z,101915.75
2023-03-29T19:44:06.460Z,101925.59
2023-03-29T19:46:33.221Z,101919.63
2023-03-29T19:49:02.167Z,101927.25
2023-03-29T19:51:30.874Z,101921.03
2023-03-29T19:53:57.712Z,101932.81
2023-03-29T19:56:25.987Z,101941.06
2023-03-29T19:58:52.986Z,101935.88
2023-03-29T20:01:21.100Z,101928.00
2023-03-29T20:03:53.120Z,101933.59
2023-03-29T20:06:20.626Z,101945.34
2023-03-29T20:08:47.609Z,101938.88
2023-03-29T20:11:15.897Z,101936.38
2023-03-29T20:13:44.961Z,101917.59
2023-03-29T20:16:14.870Z,101918.25
2023-03-29T20:18:44.771Z,101920.25
2023-03-29T20:21:16.787Z,101925.63
2023-03-29T20:23:44.147Z,101929.72
2023-03-29T20:26:11.151Z,101941.25
2023-03-29T20:28:38.013Z,101939.94
2023-03-29T20:31:07.170Z,101939.94
2023-03-29T20:33:34.066Z,101941.78
2023-03-29T20:36:01.001Z,101939.47
2023-03-29T20:38:28.265Z,101940.97
2023-03-29T20:40:55.432Z,101943.66
2023-03-29T20:43:22.307Z,101936.16
2023-03-29T20:45:54.065Z,101936.31
2023-03-29T20:48:23.423Z,101947.22
2023-03-29T20:50:51.495Z,101936.06
2023-03-29T20:53:21.071Z,101943.63
2023-03-29T20:55:48.133Z,101937.84
2023-03-29T20:58:15.913Z,101953.28
2023-03-29T21:00:43.723Z,101954.28
2023-03-29T21:03:11.131Z,101949.13
2023-03-29T21:05:38.898Z,101938.56
2023-03-29T21:08:06.116Z,101939.56
2023-03-29T21:10:33.260Z,101923.84
2023-03-29T21:13:01.451Z,101926.72
2023-03-29T21:15:30.683Z,101938.47
2023-03-29T21:17:58.127Z,101934.31
2023-03-29T21:20:25.023Z,101926.63
2023-03-29T21:22:51.806Z,101930.31
2023-03-29T21:25:18.899Z,101937.94
2023-03-29T21:27:46.188Z,101929.88
2023-03-29T21:30:13.265Z,101922.03
2023-03-29T21:32:40.494Z,101927.59
2023-03-29T21:35:08.050Z,101932.09
2023-03-29T21:37:34.884Z,101937.03
2023-03-29T21:40:05.677Z,101935.97
2023-03-29T21:42:34.006Z,101936.34
2023-03-29T21:45:01.031Z,101933.88
2023-03-29T21:47:27.943Z,101920.63
2023-03-29T21:49:54.753Z,101914.41
2023-03-29T21:52:21.609Z,101908.22
2023-03-29T21:54:48.414Z,101913.59
2023-03-29T21:57:15.376Z,101915.66
2023-03-29T21:59:42.459Z,101911.09
2023-03-29T22:02:09.356Z,101912.13
2023-03-29T22:04:37.698Z,101917.22
2023-03-29T22:07:06.439Z,101906.66
2023-03-29T22:09:35.145Z,101909.34
2023-03-29T22:12:03.379Z,101907.69
2023-03-29T22:14:34.622Z,101914.25
2023-03-29T22:17:01.844Z,101915.25
2023-03-29T22:19:31.310Z,101914.78
2023-03-29T22:22:01.520Z,101897.25
2023-03-29T22:24:29.139Z,101881.97
2023-03-29T22:26:58.610Z,101903.63
2023-03-29T22:29:25.497Z,101924.06
2023-03-29T22:31:52.343Z,101919.13
2023-03-29T22:34:19.150Z,101911.44
2023-03-29T22:36:45.928Z,101918.88
2023-03-29T22:39:13.475Z,101913.91
2023-03-29T22:41:40.294Z,101908.75
2023-03-29T22:44:07.210Z,101910.78
2023-03-29T22:46:34.191Z,101923.69
2023-03-29T22:49:01.166Z,101915.19
2023-03-29T22:51:27.940Z,101914.16
2023-03-29T22:53:54.770Z,101913.88
2023-03-29T22:56:22.089Z,101926.09
2023-03-29T22:58:48.972Z,101935.16
2023-03-29T23:01:15.832Z,101932.34
2023-03-29T23:03:42.723Z,101926.16
2023-03-29T23:06:09.534Z,101928.19
2023-03-29T23:08:36.322Z,101934.16
2023-03-29T23:11:04.361Z,101922.44
2023-03-29T23:13:31.429Z,101926.28
2023-03-29T23:16:00.414Z,101929.31
2023-03-29T23:18:30.309Z,101914.59
2023-03-29T23:20:58.959Z,101923.50
2023-03-29T23:23:27.285Z,101937.91
2023-03-29T23:25:58.256Z,101929.03
2023-03-29T23:28:30.288Z,101923.69
2023-03-29T23:31:11.593Z,101929.41
2023-03-29T23:33:42.834Z,101920.50
2023-03-29T23:36:15.440Z,101908.31
2023-03-29T23:38:44.926Z,101914.34
2023-03-29T23:41:12.911Z,101908.97
2023-03-29T23:43:42.466Z,101913.19
2023-03-29T23:46:15.281Z,101904.63
2023-03-29T23:48:50.252Z,101906.28
2023-03-29T23:51:18.917Z,101915.34
2023-03-29T23:53:46.569Z,101908.13
2023-03-29T23:56:13.372Z,101914.34
2023-03-29T23:58:40.144Z,101905.44
